Time;durP1;ratioP1;P1;durP2;ratioP2;P2;SDS_P1;SDS_P2;PMS_P1;PMS_P2;Temp;Humidity;BMP_temperature;BMP_pressure;BME280_temperature;BME280_humidity;BME280_pressure;Samples;Min_cycle;Max_cycle;Signal;HPM_P1;HPM_P2
2023/04/05 00:00:42;;;;;;;9.52;4.88;;;;;;;6.07;56.40;100652.91;6189504;23;20009;-85
2023/04/05 00:03:08;;;;;;;11.00;4.60;;;;;;;5.54;60.38;100654.75;6188776;23;20429;-85
2023/04/05 00:05:35;;;;;;;8.60;5.05;;;;;;;5.21;60.71;100645.19;6189574;23;20037;-85
2023/04/05 00:08:02;;;;;;;8.50;4.80;;;;;;;5.09;62.70;100659.34;6189012;23;20009;-86
2023/04/05 00:10:28;;;;;;;17.88;4.95;;;;;;;5.01;63.48;100646.81;6188774;23;20016;-85
2023/04/05 00:12:58;;;;;;;13.50;4.78;;;;;;;5.03;65.36;100644.91;6186731;23;20009;-86
2023/04/05 00:15:27;;;;;;;10.07;4.75;;;;;;;5.05;65.29;100650.88;6189032;23;20009;-86
2023/04/05 00:17:55;;;;;;;8.85;4.10;;;;;;;4.93;66.30;100653.66;6190329;23;20575;-83
2023/04/05 00:20:21;;;;;;;6.63;4.25;;;;;;;4.63;67.95;100662.19;6189675;23;20013;-85
2023/04/05 00:22:49;;;;;;;13.57;4.07;;;;;;;4.56;67.66;100660.97;6188734;23;20028;-84
2023/04/05 00:25:16;;;;;;;8.23;4.60;;;;;;;4.66;67.60;100662.78;6188627;23;20013;-83
2023/04/05 00:27:45;;;;;;;9.48;4.53;;;;;;;4.60;68.59;100660.63;6189220;23;20033;-83
2023/04/05 00:30:11;;;;;;;11.32;4.32;;;;;;;4.89;67.68;100665.34;6195425;23;20100;-84
2023/04/05 00:32:36;;;;;;;10.90;4.10;;;;;;;4.92;67.94;100662.47;6165303;23;20005;-84
2023/04/05 00:35:02;;;;;;;8.20;4.40;;;;;;;5.07;66.59;100656.00;6189413;23;20009;-85
2023/04/05 00:37:27;;;;;;;5.97;3.80;;;;;;;5.12;65.32;100659.09;6191309;23;20059;-85
2023/04/05 00:39:52;;;;;;;5.53;3.78;;;;;;;5.24;65.65;100652.84;6190214;23;20047;-85
2023/04/05 00:42:21;;;;;;;8.52;3.97;;;;;;;5.00;65.29;100654.84;6192317;23;20015;-85
2023/04/05 00:44:47;;;;;;;9.55;4.55;;;;;;;5.06;64.46;100662.22;6188426;23;20016;-85
2023/04/05 00:47:13;;;;;;;8.05;4.65;;;;;;;4.78;65.42;100662.72;6185702;23;20009;-85
2023/04/05 00:49:39;;;;;;;15.70;4.80;;;;;;;4.63;67.12;100660.38;6187185;23;20013;-85
2023/04/05 00:52:05;;;;;;;13.80;4.50;;;;;;;4.74;67.47;100650.84;6186328;23;20432;-84
2023/04/05 00:54:32;;;;;;;11.70;5.15;;;;;;;4.70;66.97;100663.38;6188285;23;20026;-85
2023/04/05 00:56:58;;;;;;;8.30;4.50;;;;;;;4.68;66.83;100652.13;6187273;23;20347;-85
2023/04/05 00:59:25;;;;;;;7.97;4.20;;;;;;;4.55;67.31;100660.16;6160941;23;20016;-85
2023/04/05 01:02:16;;;;;;;6.22;3.92;;;;;;;4.55;68.26;100651.44;6187616;23;20024;-87
2023/04/05 01:04:48;;;;;;;7.35;4.25;;;;;;;4.43;70.40;100653.25;6187808;23;20036;-85
2023/04/05 01:07:35;;;;;;;7.80;3.92;;;;;;;4.49;69.74;100647.50;6137802;23;20440;-85
2023/04/05 01:10:04;;;;;;;7.80;4.10;;;;;;;4.45;69.22;100655.72;6188287;23;20033;-86
2023/04/05 01:12:32;;;;;;;10.98;4.20;;;;;;;4.25;68.54;100657.28;6161969;23;20020;-86
2023/04/05 01:14:59;;;;;;;6.55;3.72;;;;;;;3.96;71.25;100651.66;6162344;23;20017;-86
2023/04/05 01:17:35;;;;;;;8.52;4.00;;;;;;;3.91;69.25;100648.53;6186043;23;20363;-85
2023/04/05 01:20:09;;;;;;;8.13;4.53;;;;;;;3.49;72.41;100651.75;6161491;23;20016;-84
2023/04/05 01:22:47;;;;;;;9.00;4.18;;;;;;;3.43;73.58;100653.06;6187525;23;20433;-85
2023/04/05 01:25:18;;;;;;;7.60;3.95;;;;;;;3.25;75.53;100648.34;6187007;23;20021;-83
2023/04/05 01:28:08;;;;;;;5.53;2.67;;;;;;;3.41;74.93;100651.50;6167091;23;20065;-85
2023/04/05 01:30:53;;;;;;;9.88;4.18;;;;;;;3.58;75.04;100657.16;6195100;23;20016;-85
2023/04/05 01:33:43;;;;;;;5.97;3.42;;;;;;;3.41;73.87;100649.72;6194479;23;20131;-85
2023/04/05 01:36:19;;;;;;;7.35;3.55;;;;;;;3.35;72.55;100658.00;6198254;23;20016;-86
2023/04/05 01:38:48;;;;;;;9.95;3.95;;;;;;;3.13;73.06;100650.06;6196304;23;20044;-84
2023/04/05 01:41:14;;;;;;;17.20;4.30;;;;;;;3.09;76.12;100648.59;6195065;23;20036;-85
2023/04/05 01:43:40;;;;;;;9.75;3.88;;;;;;;3.18;75.01;100642.72;6196863;23;20128;-87
2023/04/05 01:46:06;;;;;;;11.45;3.78;;;;;;;3.33;73.95;100636.34;6170936;23;20634;-87
2023/04/05 01:48:31;;;;;;;7.35;3.83;;;;;;;3.31;73.87;100638.25;6191675;23;20344;-85
2023/04/05 01:50:58;;;;;;;6.20;3.60;;;;;;;3.22;74.18;100643.31;6186249;23;20005;-87
2023/04/05 01:53:24;;;;;;;5.63;3.60;;;;;;;3.12;73.90;100637.91;6188723;23;20324;-85
2023/04/05 01:55:50;;;;;;;6.32;3.53;;;;;;;3.01;74.84;100637.88;6188284;23;20072;-88
2023/04/05 01:58:16;;;;;;;12.82;3.28;;;;;;;2.95;73.72;100633.09;6187380;23;20161;-85
2023/04/05 02:00:41;;;;;;;7.50;3.85;;;;;;;2.90;74.42;100632.56;6185984;23;20019;-84
2023/04/05 02:03:07;;;;;;;7.13;3.63;;;;;;;2.87;73.34;100638.03;6187597;23;20005;-86
2023/04/05 02:05:32;;;;;;;8.27;3.63;;;;;;;2.86;73.73;100650.28;6186168;23;20071;-85
2023/04/05 02:07:58;;;;;;;10.90;3.40;;;;;;;2.89;73.89;100651.81;6187287;23;20045;-85
2023/04/05 02:10:23;;;;;;;7.05;3.63;;;;;;;2.83;74.71;100649.66;6190672;23;20408;-83
2023/04/05 02:12:49;;;;;;;7.20;3.50;;;;;;;2.82;75.08;100650.59;6186484;23;20021;-84
2023/04/05 02:15:15;;;;;;;7.25;3.78;;;;;;;2.80;75.77;100645.47;6186193;23;20013;-86
2023/04/05 02:17:44;;;;;;;11.25;3.30;;;;;;;2.80;74.32;100644.63;6185954;23;20008;-85
2023/04/05 02:20:11;;;;;;;12.07;4.45;;;;;;;2.87;74.48;100640.63;6189125;23;20075;-85
2023/04/05 02:22:38;;;;;;;7.57;3.75;;;;;;;3.06;73.89;100643.59;6187204;23;20082;-84
2023/04/05 02:25:07;;;;;;;5.10;3.30;;;;;;;3.24;72.51;100646.66;6187102;23;20088;-86
2023/04/05 02:27:33;;;;;;;7.95;3.63;;;;;;;3.06;71.82;100638.34;6188260;23;20001;-85
2023/04/05 02:29:59;;;;;;;6.45;4.20;;;;;;;3.20;73.88;100651.28;6187041;23;20067;-86
2023/04/05 02:32:24;;;;;;;8.48;3.78;;;;;;;3.22;72.58;100654.63;6187472;23;20013;-86
2023/04/05 02:34:51;;;;;;;7.93;4.15;;;;;;;3.09;72.89;100648.59;6187016;23;20024;-88
2023/04/05 02:37:18;;;;;;;6.30;3.40;;;;;;;3.10;74.25;100647.66;6185733;23;20016;-87
2023/04/05 02:39:43;;;;;;;10.77;4.10;;;;;;;3.19;73.91;100657.47;6163053;23;20005;-86
2023/04/05 02:42:10;;;;;;;8.48;3.53;;;;;;;3.31;73.22;100661.00;6188106;23;20017;-87
2023/04/05 02:44:36;;;;;;;10.40;4.10;;;;;;;3.22;72.12;100662.47;6187202;23;20009;-86
2023/04/05 02:47:01;;;;;;;9.00;4.28;;;;;;;3.00;73.24;100667.59;6187404;23;20020;-87
2023/04/05 02:49:30;;;;;;;5.60;3.45;;;;;;;3.16;73.00;100667.31;6161390;23;20017;-87
2023/04/05 02:51:58;;;;;;;14.02;4.47;;;;;;;3.07;71.76;100666.22;6185607;23;20339;-85
2023/04/05 02:54:23;;;;;;;14.98;6.28;;;;;;;2.93;73.00;100666.38;6185703;23;20040;-86
2023/04/05 02:56:56;;;;;;;14.35;6.05;;;;;;;3.00;74.03;100660.59;6185722;23;20017;-86
2023/04/05 02:59:26;;;;;;;13.90;6.65;;;;;;;2.91;72.13;100665.66;6189795;23;20459;-88
2023/04/05 03:01:53;;;;;;;14.45;6.68;;;;;;;3.06;73.87;100660.16;6189659;23;20509;-88
2023/04/05 03:04:25;;;;;;;12.65;5.50;;;;;;;3.09;73.61;100653.84;6190554;23;20001;-87
2023/04/05 03:06:56;;;;;;;17.90;6.20;;;;;;;3.20;72.74;100666.16;6185722;23;20013;-87
2023/04/05 03:09:32;;;;;;;13.77;6.07;;;;;;;3.11;73.22;100657.22;6136620;23;20091;-86
2023/04/05 03:12:03;;;;;;;11.52;5.55;;;;;;;2.92;74.13;100664.69;6186323;23;20322;-86
2023/04/05 03:14:31;;;;;;;8.63;4.65;;;;;;;2.78;75.71;100665.69;6160982;23;20009;-85
2023/04/05 03:16:56;;;;;;;8.18;4.68;;;;;;;2.54;79.76;100668.25;6187746;23;20020;-87
2023/04/05 03:19:31;;;;;;;16.05;5.50;;;;;;;2.71;80.69;100668.84;6162339;23;20089;-85
2023/04/05 03:22:07;;;;;;;12.43;6.15;;;;;;;2.58;78.88;100663.66;6187814;23;20044;-87
2023/04/05 03:24:36;;;;;;;14.40;7.30;;;;;;;2.60;78.81;100665.22;6187045;23;20013;-88
2023/04/05 03:27:05;;;;;;;20.77;7.70;;;;;;;2.47;79.10;100674.88;6164373;23;20436;-87
2023/04/05 03:29:36;;;;;;;21.83;7.35;;;;;;;2.32;81.35;100672.47;6160995;23;20020;-88
2023/04/05 03:32:10;;;;;;;15.07;6.68;;;;;;;2.13;82.50;100667.66;6184799;23;20032;-85
2023/04/05 03:34:38;;;;;;;13.73;5.65;;;;;;;2.19;82.76;100666.44;6184856;23;20440;-87
2023/04/05 03:37:06;;;;;;;10.60;5.10;;;;;;;2.16;83.65;100661.38;6185045;23;20079;-86
2023/04/05 03:39:40;;;;;;;9.63;5.43;;;;;;;2.32;82.09;100665.44;6185155;23;20009;-86
2023/04/05 03:42:05;;;;;;;11.73;5.85;;;;;;;2.19;83.28;100662.00;6188863;23;20017;-84
2023/04/05 03:44:30;;;;;;;13.65;5.50;;;;;;;2.25;83.40;100669.47;6186595;23;20024;-87
2023/04/05 03:46:56;;;;;;;12.77;5.25;;;;;;;2.28;82.53;100663.16;6186275;23;20069;-87
2023/04/05 03:49:22;;;;;;;11.20;5.55;;;;;;;2.33;81.77;100661.91;6167343;23;20009;-86
2023/04/05 03:51:48;;;;;;;12.27;5.10;;;;;;;2.52;80.34;100674.53;6166090;23;20013;-86
2023/04/05 03:54:15;;;;;;;9.82;4.30;;;;;;;2.37;79.75;100660.75;6187922;23;20039;-85
2023/04/05 03:56:41;;;;;;;8.95;4.68;;;;;;;2.44;79.21;100661.16;6187854;23;20013;-86
2023/04/05 03:59:12;;;;;;;6.60;4.05;;;;;;;2.59;80.27;100665.31;6186841;23;20313;-88
2023/04/05 04:01:37;;;;;;;11.63;4.43;;;;;;;2.92;78.13;100662.91;6186482;23;20009;-87
2023/04/05 04:04:04;;;;;;;6.72;3.67;;;;;;;2.91;75.59;100661.25;6186261;23;20017;-87
2023/04/05 04:06:30;;;;;;;10.63;3.65;;;;;;;3.08;73.54;100662.66;6186011;23;20156;-86
2023/04/05 04:08:56;;;;;;;7.93;3.80;;;;;;;2.97;73.16;100665.22;6186979;23;20020;-86
2023/04/05 04:11:21;;;;;;;10.65;4.68;;;;;;;3.00;73.42;100665.00;6161662;23;20009;-86
2023/04/05 04:13:47;;;;;;;9.57;4.25;;;;;;;2.89;74.00;100668.38;6186367;23;20032;-86
2023/04/05 04:16:32;;;;;;;6.85;3.50;;;;;;;2.53;76.41;100661.34;6140352;23;20059;-82
2023/04/05 04:19:19;;;;;;;6.47;3.65;;;;;;;2.74;75.89;100664.25;6188556;23;20075;-85
2023/04/05 04:21:49;;;;;;;8.43;4.20;;;;;;;2.58;75.42;100669.72;6192895;23;20023;-86
2023/04/05 04:24:34;;;;;;;13.20;3.97;;;;;;;2.70;75.61;100662.78;6187211;23;20028;-86
2023/04/05 04:27:29;;;;;;;9.30;3.78;;;;;;;2.88;74.56;100671.97;6185697;23;20041;-84
2023/04/05 04:30:00;;;;;;;11.00;4.15;;;;;;;2.78;72.67;100670.09;6163039;23;20051;-86
2023/04/05 04:35:39;;;;;;;7.32;2.90;;;;;;;2.75;72.15;100665.88;6175310;23;20021;-85
2023/04/05 04:38:25;;;;;;;6.05;3.88;;;;;;;2.67;72.15;100667.38;6170828;23;20017;-85
2023/04/05 04:41:25;;;;;;;7.72;3.33;;;;;;;2.46;74.18;100681.03;6185620;23;20448;-86
2023/04/05 04:44:13;;;;;;;4.88;3.38;;;;;;;2.46;75.01;100674.97;6170977;23;20476;-84
2023/04/05 04:47:00;;;;;;;8.85;3.40;;;;;;;2.70;75.44;100682.88;6160625;23;20458;-84
2023/04/05 04:49:46;;;;;;;7.43;3.75;;;;;;;2.68;74.83;100680.38;6187642;23;20064;-84
2023/04/05 04:52:12;;;;;;;16.05;4.15;;;;;;;2.43;76.14;100683.84;6160509;23;20067;-85
2023/04/05 04:54:41;;;;;;;12.52;4.05;;;;;;;2.79;75.17;100688.28;6185495;23;20441;-84
2023/04/05 04:57:06;;;;;;;10.13;3.75;;;;;;;2.83;74.41;100694.16;6186230;23;20071;-87
2023/04/05 04:59:32;;;;;;;11.93;3.85;;;;;;;2.69;75.01;100681.19;6188052;23;20329;-85
2023/04/05 05:01:57;;;;;;;16.20;3.58;;;;;;;2.49;76.68;100687.81;6189000;23;20009;-88
2023/04/05 05:04:23;;;;;;;7.78;3.22;;;;;;;2.81;75.80;100690.81;6189261;23;20085;-85
2023/04/05 05:06:52;;;;;;;9.90;3.40;;;;;;;2.87;74.70;100693.84;6189146;23;20013;-87
2023/04/05 05:09:18;;;;;;;11.63;4.40;;;;;;;2.86;73.95;100689.53;6167674;23;20024;-86
2023/04/05 05:11:48;;;;;;;10.70;3.75;;;;;;;2.69;74.63;100702.13;6167036;23;20013;-87
2023/04/05 05:14:14;;;;;;;11.43;4.28;;;;;;;2.87;75.05;100695.59;6190652;23;20036;-88
2023/04/05 05:16:40;;;;;;;13.93;4.85;;;;;;;2.77;75.56;100702.44;6161838;23;20051;-86
2023/04/05 05:19:05;;;;;;;9.48;3.67;;;;;;;3.02;75.21;100699.72;6187307;23;20020;-86
2023/04/05 05:21:40;;;;;;;13.77;4.10;;;;;;;2.91;74.97;100703.16;6186603;23;20035;-85
2023/04/05 05:24:07;;;;;;;12.18;4.18;;;;;;;2.94;75.48;100694.22;6187879;23;20009;-84
2023/04/05 05:26:32;;;;;;;15.68;4.40;;;;;;;2.96;74.65;100697.56;6187962;23;20020;-86
2023/04/05 05:29:01;;;;;;;12.73;4.32;;;;;;;2.69;76.84;100705.56;6186702;23;20017;-86
2023/04/05 05:31:32;;;;;;;16.43;3.50;;;;;;;2.66;77.51;100699.72;6191421;23;20437;-87
2023/04/05 05:33:58;;;;;;;16.35;5.03;;;;;;;2.66;78.27;100697.09;6192036;23;20444;-90
2023/04/05 05:36:27;;;;;;;18.45;4.88;;;;;;;2.54;79.24;100710.13;6167348;23;20009;-85
2023/04/05 05:38:56;;;;;;;12.43;4.70;;;;;;;2.69;78.81;100696.88;6219653;22;20035;-90
2023/04/05 05:41:24;;;;;;;14.05;5.30;;;;;;;3.02;78.37;100705.81;6224706;23;20031;-90
2023/04/05 05:43:50;;;;;;;15.07;4.88;;;;;;;3.34;75.00;100707.91;6225591;23;20069;-89
2023/04/05 05:46:15;;;;;;;12.50;4.95;;;;;;;3.82;71.96;100716.56;6221489;23;20014;-90
2023/04/05 05:48:44;;;;;;;10.70;4.45;;;;;;;3.97;71.71;100712.81;6220986;23;20012;-88
2023/04/05 05:51:10;;;;;;;16.27;4.25;;;;;;;4.18;70.55;100712.97;6218675;23;20492;-86
2023/04/05 05:53:36;;;;;;;12.52;4.47;;;;;;;4.25;70.84;100711.53;6191250;23;20032;-88
2023/04/05 05:56:02;;;;;;;13.55;4.70;;;;;;;5.05;66.78;100715.69;6191289;23;20063;-86
2023/04/05 05:58:28;;;;;;;15.10;4.70;;;;;;;5.16;65.03;100706.03;6222705;23;20020;-85
2023/04/05 06:00:56;;;;;;;10.98;5.28;;;;;;;5.04;64.84;100722.75;6223259;23;20036;-87
2023/04/05 06:03:22;;;;;;;13.77;4.70;;;;;;;5.55;62.52;100712.47;6192698;23;20009;-87
2023/04/05 06:05:55;;;;;;;17.23;5.43;;;;;;;5.79;62.21;100727.19;6218492;23;20080;-86
2023/04/05 06:08:24;;;;;;;13.68;5.15;;;;;;;5.80;60.28;100713.09;6219016;23;20016;-89
2023/04/05 06:10:54;;;;;;;14.65;4.97;;;;;;;5.28;63.10;100717.31;6167999;23;20024;-87
2023/04/05 06:13:22;;;;;;;22.15;5.20;;;;;;;5.55;62.18;100725.59;6219911;23;20011;-89
2023/04/05 06:15:48;;;;;;;14.02;5.50;;;;;;;6.15;59.36;100718.88;6191544;23;20008;-88
2023/04/05 06:18:14;;;;;;;22.73;5.13;;;;;;;6.39;58.96;100722.09;6192033;23;20046;-88
2023/04/05 06:20:41;;;;;;;10.82;5.20;;;;;;;7.51;56.54;100722.72;6222453;23;20016;-86
2023/04/05 06:23:07;;;;;;;24.75;5.63;;;;;;;7.85;52.46;100727.59;6219212;23;20015;-87
2023/04/05 06:25:33;;;;;;;15.98;5.80;;;;;;;7.31;53.01;100731.56;6218478;23;20024;-86
2023/04/05 06:27:58;;;;;;;10.27;5.97;;;;;;;7.45;52.42;100728.53;6219667;23;20064;-88
2023/04/05 06:30:27;;;;;;;15.43;6.45;;;;;;;7.33;53.64;100723.50;6197011;23;20035;-87
2023/04/05 06:32:53;;;;;;;13.48;6.00;;;;;;;7.53;53.46;100720.75;6222882;23;20443;-90
2023/04/05 06:35:48;;;;;;;20.08;6.63;;;;;;;7.30;52.48;100724.63;6200721;23;20051;-81
2023/04/05 06:38:22;;;;;;;10.75;5.75;;;;;;;7.43;52.46;100719.91;6211949;23;20024;-79
2023/04/05 06:45:26;;;;;;;14.88;5.85;;;;;;;7.36;52.84;100734.63;6212227;23;20016;-82
2023/04/05 06:47:52;;;;;;;14.85;5.32;;;;;;;7.47;51.36;100731.88;6164388;23;20475;-87
2023/04/05 06:50:17;;;;;;;11.15;5.22;;;;;;;7.62;50.51;100727.84;6191135;23;20021;-83
2023/04/05 06:52:43;;;;;;;9.77;4.93;;;;;;;8.69;48.30;100737.31;6189137;23;20047;-85
2023/04/05 06:55:09;;;;;;;10.63;5.22;;;;;;;8.46;47.42;100728.06;6189483;23;20005;-86
2023/04/05 06:57:34;;;;;;;12.35;5.03;;;;;;;8.99;47.24;100733.56;6189561;23;20013;-86
2023/04/05 07:00:00;;;;;;;14.02;5.55;;;;;;;9.11;45.34;100727.94;6186660;23;20009;-87
2023/04/05 07:02:25;;;;;;;12.88;5.53;;;;;;;9.08;45.31;100719.47;6188441;23;20016;-88
2023/04/05 07:04:52;;;;;;;9.10;4.53;;;;;;;9.42;45.50;100720.50;6188315;23;20009;-90
2023/04/05 07:07:21;;;;;;;17.63;5.68;;;;;;;9.48;43.92;100719.91;6202927;23;20009;-86
2023/04/05 07:09:46;;;;;;;7.70;4.60;;;;;;;9.83;41.90;100721.72;6188721;23;20063;-85
2023/04/05 07:12:12;;;;;;;7.97;4.35;;;;;;;11.25;38.76;100732.69;6188830;23;20009;-87
2023/04/05 07:14:37;;;;;;;9.82;4.82;;;;;;;10.99;40.42;100723.97;6187447;23;20326;-89
2023/04/05 07:17:05;;;;;;;13.50;4.95;;;;;;;10.40;41.32;100722.19;6187109;23;20024;-91
2023/04/05 07:19:31;;;;;;;12.38;4.72;;;;;;;11.50;39.28;100729.09;6165941;23;20301;-89
2023/04/05 07:21:58;;;;;;;14.35;4.45;;;;;;;11.50;38.77;100733.59;6192626;23;20100;-88
2023/04/05 07:24:26;;;;;;;8.50;4.30;;;;;;;11.57;39.61;100734.59;6193410;23;20039;-87
2023/04/05 07:26:52;;;;;;;11.48;4.80;;;;;;;12.51;36.71;100741.09;6194005;23;20017;-87
2023/04/05 07:29:23;;;;;;;11.85;4.22;;;;;;;14.37;34.26;100737.44;6192566;23;20092;-86
2023/04/05 07:31:54;;;;;;;8.02;4.22;;;;;;;12.85;35.19;100744.34;6196910;23;20020;-88
2023/04/05 07:34:20;;;;;;;10.73;4.60;;;;;;;12.58;36.53;100734.13;6191915;23;20013;-90
2023/04/05 07:36:45;;;;;;;8.80;4.22;;;;;;;13.41;35.28;100745.13;6192065;23;20071;-88
2023/04/05 07:39:11;;;;;;;11.20;4.45;;;;;;;12.70;35.50;100750.53;6214327;23;20005;-87
2023/04/05 07:41:40;;;;;;;9.30;3.72;;;;;;;12.75;36.70;100754.34;6220540;23;20016;-87
2023/04/05 07:44:06;;;;;;;14.70;4.60;;;;;;;12.52;36.76;100745.44;6221278;23;20096;-80
2023/04/05 07:46:43;;;;;;;15.55;5.00;;;;;;;12.45;37.53;100747.09;6218014;23;20021;-85
2023/04/05 07:49:11;;;;;;;10.30;4.13;;;;;;;12.99;35.74;100755.28;6224109;23;20011;-85
2023/04/05 07:54:38;;;;;;;10.57;4.60;;;;;;;14.14;33.41;100765.94;6197230;23;20021;-88
2023/04/05 07:57:06;;;;;;;8.43;4.18;;;;;;;14.35;32.93;100766.13;6170586;23;20013;-85
2023/04/05 07:59:31;;;;;;;15.52;4.43;;;;;;;14.83;32.46;100770.13;6167804;23;20017;-89
2023/04/05 08:01:57;;;;;;;14.25;4.07;;;;;;;14.93;32.18;100768.84;6167610;23;20088;-91
2023/04/05 08:04:25;;;;;;;9.32;3.78;;;;;;;13.99;32.40;100771.19;6169627;23;20009;-86
2023/04/05 08:06:51;;;;;;;8.48;4.07;;;;;;;13.86;33.18;100770.97;6197281;23;20029;-86
2023/04/05 08:09:16;;;;;;;10.40;4.28;;;;;;;14.74;32.88;100766.75;6174341;23;20009;-85
2023/04/05 08:11:43;;;;;;;9.85;4.63;;;;;;;14.05;32.93;100769.69;6198879;23;20020;-86
2023/04/05 08:16:49;;;;;;;11.52;4.15;;;;;;;13.69;32.61;100775.56;6198611;23;20032;-86
2023/04/05 08:19:16;;;;;;;9.52;4.30;;;;;;;14.18;32.68;100770.75;6195727;23;20016;-84
2023/04/05 08:21:41;;;;;;;5.43;4.00;;;;;;;13.84;32.84;100773.81;6194732;23;20013;-84
2023/04/05 08:24:07;;;;;;;6.93;4.18;;;;;;;14.10;33.18;100772.63;6143129;23;20013;-87
2023/04/05 08:26:33;;;;;;;11.45;4.82;;;;;;;15.42;31.35;100781.59;6194701;23;20013;-87
2023/04/05 08:28:58;;;;;;;7.22;3.85;;;;;;;14.94;31.52;100773.19;6194407;23;20047;-86
2023/04/05 08:31:25;;;;;;;12.00;4.80;;;;;;;15.15;31.54;100775.09;6195235;23;20036;-86
2023/04/05 08:33:51;;;;;;;10.90;4.53;;;;;;;15.66;30.84;100777.81;6167733;23;20009;-87
2023/04/05 08:36:26;;;;;;;10.43;4.53;;;;;;;15.60;31.67;100778.56;6167984;23;20013;-87
2023/04/05 08:38:55;;;;;;;7.38;4.00;;;;;;;16.90;29.73;100783.47;6193760;23;20005;-89
2023/04/05 08:41:23;;;;;;;13.15;4.28;;;;;;;15.68;30.51;100787.28;6192649;23;20079;-84
2023/04/05 08:44:08;;;;;;;7.65;4.15;;;;;;;16.03;30.17;100774.91;6191763;23;20013;-84
2023/04/05 08:46:35;;;;;;;11.57;4.63;;;;;;;16.14;30.45;100773.56;6167529;23;20356;-85
2023/04/05 08:49:07;;;;;;;10.20;5.00;;;;;;;14.56;32.64;100774.25;6117055;23;20017;-86
2023/04/05 08:51:36;;;;;;;9.43;5.05;;;;;;;14.79;33.33;100769.69;6163952;23;20009;-84
2023/04/05 08:54:03;;;;;;;8.27;5.25;;;;;;;15.08;33.76;100765.38;6166496;23;20029;-85
2023/04/05 08:56:33;;;;;;;13.07;5.03;;;;;;;15.98;31.43;100772.81;6192487;23;20013;-87
2023/04/05 08:59:07;;;;;;;10.65;5.53;;;;;;;15.15;33.45;100771.59;6191502;23;20045;-88
2023/04/05 09:01:36;;;;;;;14.68;6.30;;;;;;;14.26;35.69;100776.00;6162791;23;20009;-90
2023/04/05 09:04:08;;;;;;;12.45;5.70;;;;;;;14.32;35.65;100761.09;6188848;23;20028;-84
2023/04/05 09:06:37;;;;;;;19.55;4.55;;;;;;;14.95;33.46;100771.31;6193939;23;20013;-83
2023/04/05 09:09:07;;;;;;;12.70;5.35;;;;;;;14.81;33.58;100767.66;6194261;23;20016;-83
2023/04/05 09:11:34;;;;;;;12.65;4.72;;;;;;;15.27;33.15;100772.78;6167546;23;20017;-84
2023/04/05 09:14:05;;;;;;;18.52;4.53;;;;;;;14.77;32.84;100766.38;6194239;23;20031;-87
2023/04/05 09:16:41;;;;;;;12.18;4.93;;;;;;;15.24;32.54;100770.50;6191500;23;20035;-87
2023/04/05 09:19:14;;;;;;;10.35;3.75;;;;;;;14.06;32.55;100763.31;6192188;23;20029;-85
2023/04/05 09:21:59;;;;;;;10.05;4.18;;;;;;;14.43;32.23;100766.88;6182651;23;20017;-85
2023/04/05 09:24:38;;;;;;;6.82;3.53;;;;;;;14.88;32.33;100757.91;6189404;23;20013;-83
2023/04/05 09:27:13;;;;;;;7.78;3.80;;;;;;;15.23;31.64;100763.50;6189218;23;20088;-85
2023/04/05 09:29:40;;;;;;;11.25;4.93;;;;;;;15.17;31.04;100761.56;6187060;23;20017;-84
2023/04/05 09:32:09;;;;;;;7.93;4.00;;;;;;;14.80;31.30;100765.16;6136521;23;20039;-85
2023/04/05 09:34:36;;;;;;;16.80;4.38;;;;;;;14.75;31.53;100762.25;6188436;23;20016;-86
2023/04/05 09:37:13;;;;;;;12.10;4.95;;;;;;;15.00;31.15;100759.09;6162014;23;20112;-85
2023/04/05 09:39:38;;;;;;;10.27;4.15;;;;;;;16.15;30.04;100759.16;6187473;23;20395;-84
2023/04/05 09:42:13;;;;;;;11.73;3.63;;;;;;;15.04;31.08;100772.06;6187738;23;20009;-83
2023/04/05 09:45:06;;;;;;;13.80;4.60;;;;;;;14.81;31.55;100767.66;6159518;23;20016;-83
2023/04/05 09:47:37;;;;;;;10.32;3.80;;;;;;;15.49;29.92;100767.34;6162705;23;20013;-84
2023/04/05 09:50:13;;;;;;;12.48;3.85;;;;;;;15.11;30.94;100765.00;6138544;23;20340;-85
2023/04/05 09:52:38;;;;;;;7.80;3.83;;;;;;;15.07;30.18;100771.72;6158225;23;20084;-85
2023/04/05 09:55:25;;;;;;;7.60;3.83;;;;;;;15.02;30.41;100758.91;6161108;23;20391;-82
2023/04/05 09:57:56;;;;;;;6.75;3.85;;;;;;;15.70;29.59;100757.72;6138323;23;20036;-81
2023/04/05 10:00:22;;;;;;;6.53;3.83;;;;;;;15.40;30.07;100759.59;6186739;23;20455;-86
2023/04/05 10:02:52;;;;;;;8.40;3.88;;;;;;;15.18;30.28;100758.69;6186345;23;20009;-81
2023/04/05 10:05:17;;;;;;;16.38;4.53;;;;;;;14.47;31.20;100762.84;6159188;23;20013;-82
2023/04/05 10:07:43;;;;;;;7.90;4.03;;;;;;;15.29;30.06;100749.41;6185202;23;20084;-81
2023/04/05 10:10:11;;;;;;;9.43;4.35;;;;;;;15.84;29.53;100743.47;6159462;23;20001;-82
2023/04/05 10:12:38;;;;;;;5.70;4.07;;;;;;;15.95;29.68;100745.63;6187302;23;20092;-82
2023/04/05 10:15:05;;;;;;;9.25;3.78;;;;;;;16.26;28.83;100746.13;6194845;23;20036;-81
2023/04/05 10:17:48;;;;;;;8.38;4.13;;;;;;;16.21;28.06;100755.72;6202463;23;20013;-83
2023/04/05 10:20:19;;;;;;;12.63;3.65;;;;;;;16.90;27.36;100744.09;6180207;23;20013;-79
2023/04/05 10:23:09;;;;;;;7.40;3.45;;;;;;;16.77;26.47;100752.06;6208744;23;20012;-83
2023/04/05 10:26:03;;;;;;;9.23;3.65;;;;;;;17.07;26.28;100751.81;6169262;23;20017;-85
2023/04/05 10:28:36;;;;;;;5.47;3.08;;;;;;;16.20;26.06;100748.75;6192951;23;20015;-81
2023/04/05 10:31:14;;;;;;;5.38;3.30;;;;;;;15.80;26.61;100744.88;6188731;23;20021;-82
2023/04/05 10:33:42;;;;;;;6.57;3.08;;;;;;;15.97;26.83;100732.91;6164253;23;20013;-81
2023/04/05 10:36:52;;;;;;;10.13;3.80;;;;;;;15.30;27.52;100746.56;6194072;23;20013;-83
2023/04/05 10:39:41;;;;;;;10.88;4.03;;;;;;;14.61;27.69;100739.03;6190441;23;20017;-85
2023/04/05 10:42:20;;;;;;;6.97;3.38;;;;;;;14.64;27.80;100736.84;6188040;23;20020;-83
2023/04/05 10:44:51;;;;;;;9.27;3.70;;;;;;;15.07;27.04;100735.16;6161441;23;20032;-82
2023/04/05 10:47:18;;;;;;;6.80;3.40;;;;;;;16.18;26.99;100727.53;6189260;23;20096;-85
2023/04/05 10:49:52;;;;;;;9.02;3.95;;;;;;;16.41;25.83;100729.97;6171476;23;20064;-83
2023/04/05 10:52:41;;;;;;;7.50;4.40;;;;;;;15.95;26.02;100719.72;6176706;23;20009;-82
2023/04/05 10:55:11;;;;;;;6.18;3.65;;;;;;;16.41;25.85;100724.59;6205181;23;20021;-82
2023/04/05 10:57:41;;;;;;;7.50;4.45;;;;;;;16.30;25.80;100725.16;6182950;23;20085;-82
2023/04/05 11:00:09;;;;;;;7.57;4.70;;;;;;;16.18;25.57;100724.00;6206303;23;20008;-84
2023/04/05 11:03:13;;;;;;;9.48;4.43;;;;;;;16.63;25.08;100720.91;6183402;23;20016;-84
2023/04/05 11:05:46;;;;;;;16.27;4.32;;;;;;;17.01;25.87;100711.41;6211372;23;20019;-84
2023/04/05 11:08:15;;;;;;;11.32;4.80;;;;;;;16.42;25.51;100719.06;6201636;23;20013;-82
2023/04/05 11:10:53;;;;;;;10.60;4.22;;;;;;;15.56;26.18;100714.00;6204628;23;20012;-83
2023/04/05 11:13:19;;;;;;;8.93;4.65;;;;;;;15.61;25.94;100711.56;6205968;23;20005;-86
2023/04/05 11:15:45;;;;;;;9.13;4.88;;;;;;;16.23;25.69;100710.91;6209677;23;20428;-85
2023/04/05 11:18:42;;;;;;;8.98;4.68;;;;;;;17.14;24.90;100709.81;6179886;23;20044;-81
2023/04/05 11:21:28;;;;;;;7.90;4.60;;;;;;;18.18;23.64;100714.59;6185286;23;20001;-86
2023/04/05 11:24:08;;;;;;;9.07;5.00;;;;;;;17.52;23.78;100697.59;6181352;23;20021;-82
2023/04/05 11:26:46;;;;;;;12.70;5.40;;;;;;;15.57;26.52;100691.63;6186614;23;19997;-86
2023/04/05 11:29:14;;;;;;;11.02;5.13;;;;;;;15.09;26.89;100703.75;6214488;23;20011;-86
2023/04/05 11:31:59;;;;;;;8.52;4.80;;;;;;;15.06;26.96;100700.63;6212460;23;20009;-86
2023/04/05 11:34:25;;;;;;;9.30;4.82;;;;;;;15.21;27.12;100698.78;6212024;23;20073;-88
2023/04/05 11:36:50;;;;;;;9.25;4.97;;;;;;;15.92;26.20;100690.69;6161651;23;20013;-85
2023/04/05 11:39:22;;;;;;;7.10;4.80;;;;;;;15.16;26.60;100690.50;6211541;23;20053;-84
2023/04/05 11:42:22;;;;;;;13.95;5.30;;;;;;;16.15;25.83;100697.66;6185817;23;20005;-85
2023/04/05 11:44:52;;;;;;;8.00;4.75;;;;;;;16.74;25.54;100690.88;6180207;23;20033;-85
2023/04/05 11:47:22;;;;;;;13.88;5.30;;;;;;;17.96;24.45;100678.28;6154934;23;20021;-84
2023/04/05 11:49:51;;;;;;;9.32;5.22;;;;;;;17.47;24.32;100681.28;6206888;23;20017;-85
2023/04/05 11:52:19;;;;;;;8.18;5.57;;;;;;;16.02;26.19;100677.84;6198570;23;20016;-84
2023/04/05 11:54:45;;;;;;;11.00;4.45;;;;;;;14.77;27.12;100675.66;6199636;23;20057;-85